Latest Coastal Weather Observations for South Channel Island

IDV60701

Issued at 3:12 am EDT Tuesday 11 December 2018 (issued every 10 minutes, with the page automatically refreshed every 10 minutes)

About coastal observations | Map of coastal stations | Coastal observations for VIC | Marine services | Other Formats
Station Details ID: 086344 Name: SOUTH CHANNEL ISLAND Lat: -38.31 Lon: 144.80 Height: 9.0 m
Data from the previous 72 hours. | See also: Recent months for locations in Victoria
Date/Time
EDT
Wind Sea
Height
m
Swell Vis
km
Cloud Weather Temp
°C
Press
hPa
Rain since
9am
mm
Dir  Spd
kts
Gust
kts
Height
m
Period
s
Dir
11/03:00am SSE 11 14 - - - - - - - - - -
11/02:30am SSE 10 12 - - - - - - - - - -
11/02:00am SSE 10 13 - - - - - - - - - -
11/01:30am SSE 9 11 - - - - - - - - - -
11/01:00am S 9 11 - - - - - - - - - -
11/12:30am SSE 9 12 - - - - - - - - - -
11/12:00am SSE 11 14 - - - - - - - - - -
 
Date/Time
EDT
Wind Sea
Height
m
Swell Vis
km
Cloud Weather Temp
°C
Press
hPa
Rain since
9am
mm
Dir  Spd
kts
Gust
kts
Height
m
Period
s
Dir
10/11:30pm S 11 14 - - - - - - - - - -
10/11:00pm SSW 12 15 - - - - - - - - - -
10/10:30pm S 12 15 - - - - - - - - - -
10/10:00pm SSW 12 15 - - - - - - - - - -
10/09:30pm SSW 13 15 - - - - - - - - - -
10/09:00pm SSW 14 16 - - - - - - - - - -
10/08:30pm S 15 17 - - - - - - - - - -
10/08:00pm S 15 18 - - - - - - - - - -
10/07:30pm S 15 17 - - - - - - - - - -
10/07:00pm SSW 15 17 - - - - - - - - - -
10/06:30pm SSW 14 16 - - - - - - - - - -
10/06:00pm S 13 16 - - - - - - - - - -
10/05:30pm S 14 15 - - - - - - - - - -
10/05:00pm S 12 15 - - - - - - - - - -
10/04:30pm S 15 18 - - - - - - - - - -
10/04:00pm S 15 18 - - - - - - - - - -
10/03:30pm S 15 18 - - - - - - - - - -
10/03:00pm SSW 16 20 - - - - - - - - - -
10/02:30pm S 15 18 - - - - - - - - - -
10/02:00pm SSW 14 17 - - - - - - - - - -
10/01:30pm SSW 14 17 - - - - - - - - - -
10/01:00pm S 13 17 - - - - - - - - - -
10/12:30pm SSW 15 18 - - - - - - - - - -
10/12:00pm SSW 14 18 - - - - - - - - - -
10/11:30am SSW 15 18 - - - - - - - - - -
10/11:00am SSW 15 17 - - - - - - - - - -
10/10:30am SSW 16 19 - - - - - - - - - -
10/10:00am SSW 15 17 - - - - - - - - - -
10/09:30am SSW 17 19 - - - - - - - - - -
10/09:00am SSW 15 18 - - - - - - - - - -
10/08:30am SSW 15 18 - - - - - - - - - -
10/08:00am SSW 15 18 - - - - - - - - - -
10/07:30am SSW 15 19 - - - - - - - - - -
10/07:00am SW 17 21 - - - - - - - - - -
10/06:30am SW 18 22 - - - - - - - - - -
10/06:00am SW 17 19 - - - - - - - - - -
10/05:30am SW 17 20 - - - - - - - - - -
10/05:00am SW 15 20 - - - - - - - - - -
10/04:30am SW 15 17 - - - - - - - - - -
10/04:00am SW 13 15 - - - - - - - - - -
10/03:30am SW 14 17 - - - - - - - - - -
10/03:00am SW 14 15 - - - - - - - - - -
10/02:30am SW 13 15 - - - - - - - - - -
10/02:00am SW 14 16 - - - - - - - - - -
10/01:30am SW 14 16 - - - - - - - - - -
10/01:00am SSW 13 15 - - - - - - - - - -
10/12:30am SSW 13 15 - - - - - - - - - -
10/12:00am SSW 12 15 - - - - - - - - - -
 
Date/Time
EDT
Wind Sea
Height
m
Swell Vis
km
Cloud Weather Temp
°C
Press
hPa
Rain since
9am
mm
Dir  Spd
kts
Gust
kts
Height
m
Period
s
Dir
09/11:30pm S 15 17 - - - - - - - - - -
09/11:00pm S 15 18 - - - - - - - - - -
09/10:30pm S 16 18 - - - - - - - - - -
09/10:00pm SSW 13 16 - - - - - - - - - -
09/09:30pm S 15 17 - - - - - - - - - -
09/09:00pm S 14 15 - - - - - - - - - -
09/08:30pm S 13 15 - - - - - - - - - -
09/08:00pm SSW 13 14 - - - - - - - - - -
09/07:30pm SSW 13 15 - - - - - - - - - -
09/07:00pm SSW 13 14 - - - - - - - - - -
09/06:30pm SSW 13 15 - - - - - - - - - -
09/06:00pm SSW 13 14 - - - - - - - - - -
09/05:30pm SSW 14 15 - - - - - - - - - -
09/05:00pm SSW 15 17 - - - - - - - - - -
09/04:30pm SSW 13 15 - - - - - - - - - -
09/04:00pm SSW 13 15 - - - - - - - - - -
09/03:30pm SSW 15 16 - - - - - - - - - -
09/03:00pm SSW 16 18 - - - - - - - - - -
09/02:30pm SSW 14 16 - - - - - - - - - -
09/02:00pm SSW 14 16 - - - - - - - - - -
09/01:30pm SSW 15 17 - - - - - - - - - -
09/01:00pm SSW 16 18 - - - - - - - - - -
09/12:30pm SSW 15 17 - - - - - - - - - -
09/12:00pm SSW 15 17 - - - - - - - - - -
09/11:30am S 15 17 - - - - - - - - - -
09/11:00am SSW 15 17 - - - - - - - - - -
09/10:30am SSW 13 15 - - - - - - - - - -
09/10:00am S 11 14 - - - - - - - - - -
09/09:30am S 9 12 - - - - - - - - - -
09/09:00am S 9 13 - - - - - - - - - -
09/08:30am S 12 15 - - - - - - - - - -
09/08:00am SSE 10 13 - - - - - - - - - -
09/07:30am S 8 9 - - - - - - - - - -
09/07:00am SSE 9 11 - - - - - - - - - -
09/06:30am SSE 9 10 - - - - - - - - - -
09/06:00am SSE 10 12 - - - - - - - - - -
09/05:30am S 11 13 - - - - - - - - - -
09/05:00am S 11 14 - - - - - - - - - -
09/04:30am S 11 13 - - - - - - - - - -
09/04:00am SSW 10 13 - - - - - - - - - -
09/03:30am S 10 14 - - - - - - - - - -
09/03:00am SSW 12 15 - - - - - - - - - -
09/02:30am S 13 16 - - - - - - - - - -
09/02:00am S 13 16 - - - - - - - - - -
09/01:30am SSW 13 16 - - - - - - - - - -
09/01:00am S 14 17 - - - - - - - - - -
09/12:30am S 14 17 - - - - - - - - - -
09/12:00am S 13 16 - - - - - - - - - -
 
Date/Time
EDT
Wind Sea
Height
m
Swell Vis
km
Cloud Weather Temp
°C
Press
hPa
Rain since
9am
mm
Dir  Spd
kts
Gust
kts
Height
m
Period
s
Dir
08/11:30pm S 14 17 - - - - - - - - - -
08/11:00pm S 15 17 - - - - - - - - - -
08/10:30pm S 17 19 - - - - - - - - - -
08/10:00pm S 17 19 - - - - - - - - - -
08/09:30pm S 16 18 - - - - - - - - - -
08/09:00pm S 18 20 - - - - - - - - - -
08/08:30pm S 17 21 - - - - - - - - - -
08/08:00pm S 18 21 - - - - - - - - - -
08/07:30pm S 20 23 - - - - - - - - - -
08/07:00pm S 21 25 - - - - - - - - - -
08/06:30pm S 23 26 - - - - - - - - - -
08/06:00pm S 23 28 - - - - - - - - - -
08/05:30pm S 23 26 - - - - - - - - - -
08/05:00pm SSW 23 26 - - - - - - - - - -
08/04:30pm SSW 20 23 - - - - - - - - - -
08/04:00pm SSW 20 22 - - - - - - - - - -
08/03:30pm SSW 18 20 - - - - - - - - - -
08/03:00pm SSW 17 18 - - - - - - - - - -
08/02:30pm SSW 17 19 - - - - - - - - - -
08/02:00pm SW 11 16 - - - - - - - - - -
08/01:30pm SSW 11 19 - - - - - - - - - -
08/01:27pm S 9 19 - - - - - - - - - -
08/01:00pm CALM 0 3 - - - - - - - - - -
08/12:30pm WSW 7 9 - - - - - - - - - -
08/12:00pm S 1 6 - - - - - - - - - -
08/11:30am SSW 5 7 - - - - - - - - - -
08/11:00am WSW 7 11 - - - - - - - - - -
08/10:30am ENE 5 6 - - - - - - - - - -
08/10:00am E 6 8 - - - - - - - - - -
08/09:30am SE 9 11 - - - - - - - - - -
08/09:00am SSE 14 16 - - - - - - - - - -
08/08:30am S 14 15 - - - - - - - - - -
08/08:00am S 14 16 - - - - - - - - - -
08/07:30am SE 7 8 - - - - - - - - - -
08/07:00am SSE 7 11 - - - - - - - - - -
08/06:30am WSW 1 5 - - - - - - - - - -
08/06:00am WSW 10 15 - - - - - - - - - -
08/05:30am NNE 12 16 - - - - - - - - - -
08/05:00am NE 17 19 - - - - - - - - - -
08/04:30am ENE 11 14 - - - - - - - - - -
08/04:00am NE 12 15 - - - - - - - - - -
08/03:30am NW 6 8 - - - - - - - - - -

Other Formats:

Comma delimited format used in spreadsheet applications
http://www.bom.gov.au/fwo/IDV60701/IDV60701.94853.axf

JavaScript Object Notation format (JSON) in row-major order
http://www.bom.gov.au/fwo/IDV60701/IDV60701.94853.json